Time;durP1;ratioP1;P1;durP2;ratioP2;P2;SDS_P1;SDS_P2;PMS_P1;PMS_P2;Temp;Humidity;BMP_temperature;BMP_pressure;BME280_temperature;BME280_humidity;BME280_pressure;Samples;Min_cycle;Max_cycle;Signal;HPM_P1;HPM_P2
2023/01/06 00:01:36;;;;;;;13.13;6.10;;;;;;;11.63;100.00;101622.69;2616836;36;20038;-60
2023/01/06 00:04:09;;;;;;;11.32;5.22;;;;;;;11.52;100.00;101613.63;2616737;36;20022;-61
2023/01/06 00:06:38;;;;;;;12.95;5.03;;;;;;;11.58;100.00;101617.69;2616254;36;20030;-60
2023/01/06 00:09:07;;;;;;;10.73;4.47;;;;;;;11.56;100.00;101614.25;2616892;36;20427;-61
2023/01/06 00:11:35;;;;;;;8.82;4.28;;;;;;;11.56;100.00;101609.72;2614632;36;20534;-60
2023/01/06 00:14:03;;;;;;;10.02;4.43;;;;;;;11.62;100.00;101602.13;2615664;31;20023;-60
2023/01/06 00:16:34;;;;;;;13.47;5.93;;;;;;;11.53;100.00;101604.56;2614519;36;20030;-59
2023/01/06 00:19:03;;;;;;;10.05;6.13;;;;;;;11.66;100.00;101603.56;2615927;31;20400;-60
2023/01/06 00:21:31;;;;;;;11.30;3.77;;;;;;;11.63;100.00;101596.59;2615307;36;20110;-59
2023/01/06 00:24:00;;;;;;;10.88;3.88;;;;;;;11.61;100.00;101603.09;2614878;36;20038;-60
2023/01/06 00:26:29;;;;;;;10.33;3.93;;;;;;;11.73;100.00;101596.69;2614388;36;20034;-60
2023/01/06 00:28:58;;;;;;;9.32;3.20;;;;;;;11.61;100.00;101600.41;2612362;31;20138;-60
2023/01/06 00:31:26;;;;;;;7.07;3.67;;;;;;;11.67;100.00;101589.13;2614506;36;20023;-60
2023/01/06 00:33:59;;;;;;;5.47;3.43;;;;;;;11.61;100.00;101600.41;2615955;36;20022;-59
2023/01/06 00:36:28;;;;;;;7.90;3.90;;;;;;;11.60;100.00;101601.38;2615879;36;20038;-59
2023/01/06 00:38:56;;;;;;;7.70;3.83;;;;;;;11.57;100.00;101603.34;2616405;36;20035;-60
2023/01/06 00:44:06;;;;;;;6.78;3.05;;;;;;;11.43;100.00;101613.53;2615973;36;20033;-60
2023/01/06 00:46:34;;;;;;;7.25;2.90;;;;;;;11.52;100.00;101618.19;2616206;36;20026;-61
2023/01/06 00:49:06;;;;;;;9.17;3.03;;;;;;;11.51;100.00;101622.72;2616103;36;20030;-60
2023/01/06 00:51:36;;;;;;;5.50;2.70;;;;;;;11.58;100.00;101613.13;2616672;36;20656;-60
2023/01/06 00:54:05;;;;;;;7.38;2.50;;;;;;;11.48;100.00;101628.34;2615960;36;20034;-62
2023/01/06 00:56:34;;;;;;;7.95;2.58;;;;;;;11.56;100.00;101615.09;2616177;36;20034;-60
2023/01/06 00:59:04;;;;;;;8.40;2.75;;;;;;;11.56;100.00;101620.50;2616345;36;20454;-59
2023/01/06 01:01:32;;;;;;;9.95;2.78;;;;;;;11.46;100.00;101630.31;2616137;36;20034;-60
2023/01/06 01:04:01;;;;;;;9.00;3.00;;;;;;;11.52;100.00;101619.03;2615412;36;20026;-60
2023/01/06 01:06:33;;;;;;;6.00;2.60;;;;;;;11.44;100.00;101623.31;2616078;36;20039;-60
2023/01/06 01:09:02;;;;;;;7.45;2.45;;;;;;;11.50;100.00;101625.53;2615940;36;20653;-61
2023/01/06 01:14:13;;;;;;;6.40;2.97;;;;;;;11.40;100.00;101626.25;2612785;31;20034;-60
2023/01/06 01:16:42;;;;;;;7.13;2.78;;;;;;;11.38;100.00;101611.19;2615570;36;20041;-59
2023/01/06 01:19:11;;;;;;;4.65;3.10;;;;;;;11.39;100.00;101621.00;2614619;36;20030;-60
2023/01/06 01:21:43;;;;;;;5.50;3.30;;;;;;;11.38;100.00;101608.50;2615549;36;20065;-62
2023/01/06 01:24:11;;;;;;;10.10;3.78;;;;;;;11.36;100.00;101605.91;2615135;31;20029;-60
2023/01/06 01:26:41;;;;;;;8.43;3.65;;;;;;;11.25;100.00;101595.16;2615545;36;20038;-60
2023/01/06 01:29:12;;;;;;;9.23;3.67;;;;;;;11.36;100.00;101597.00;2615701;36;20046;-60
2023/01/06 01:31:40;;;;;;;8.82;4.40;;;;;;;11.31;100.00;101593.81;2615407;36;20040;-59
2023/01/06 01:34:09;;;;;;;8.50;4.28;;;;;;;11.42;100.00;101591.09;2615144;36;20058;-60
2023/01/06 01:36:37;;;;;;;7.28;4.57;;;;;;;11.37;100.00;101582.53;2614330;36;20599;-60
2023/01/06 01:39:09;;;;;;;11.63;5.05;;;;;;;11.31;100.00;101580.34;2615883;36;20045;-59
2023/01/06 01:41:37;;;;;;;7.30;5.22;;;;;;;11.45;100.00;101580.06;2615692;36;20023;-61
2023/01/06 01:44:40;;;;;;;12.53;7.17;;;;;;;11.36;100.00;101576.28;2615377;36;20034;-59
2023/01/06 01:47:10;;;;;;;8.68;5.32;;;;;;;11.42;100.00;101591.09;2615718;36;20034;-61
2023/01/06 01:49:41;;;;;;;9.85;5.10;;;;;;;11.54;100.00;101590.13;2615160;36;20554;-60
2023/01/06 01:52:12;;;;;;;7.78;5.60;;;;;;;11.55;100.00;101589.13;2615494;31;20587;-58
2023/01/06 01:54:44;;;;;;;8.27;5.82;;;;;;;11.49;100.00;101592.31;2616012;36;20030;-58
2023/01/06 01:57:21;;;;;;;8.27;5.50;;;;;;;11.49;100.00;101589.63;2616269;36;20026;-61
2023/01/06 01:59:50;;;;;;;9.80;5.40;;;;;;;11.58;100.00;101586.16;2615594;36;20125;-60
2023/01/06 02:02:19;;;;;;;8.13;5.23;;;;;;;11.52;100.00;101593.91;2615781;36;20401;-60
2023/01/06 02:04:49;;;;;;;;;;;;;;;11.46;100.00;101578.25;2615373;36;20291;-59
2023/01/06 02:07:20;;;;;;;8.23;4.63;;;;;;;11.40;100.00;101579.59;2615887;36;19946;-59
2023/01/06 02:09:59;;;;;;;5.32;4.40;;;;;;;11.36;100.00;101570.88;2615208;36;20057;-59
2023/01/06 02:12:29;;;;;;;;;;;;;;;11.51;100.00;101568.81;2615645;36;20045;-59
2023/01/06 02:15:00;;;;;;;8.65;4.13;;;;;;;11.47;100.00;101558.38;2615869;36;20356;-60
2023/01/06 02:17:43;;;;;;;7.93;4.30;;;;;;;11.40;100.00;101563.41;2615591;36;20045;-59
2023/01/06 02:20:39;;;;;;;6.95;3.58;;;;;;;11.39;100.00;101559.00;2614908;36;20367;-59
2023/01/06 02:23:29;;;;;;;5.43;4.18;;;;;;;11.37;100.00;101553.75;2614475;36;20034;-60
2023/01/06 02:26:50;;;;;;;6.55;3.33;;;;;;;11.37;100.00;101559.13;2613787;36;20027;-60
2023/01/06 02:30:02;;;;;;;9.20;3.65;;;;;;;11.40;100.00;101540.00;2614144;36;20034;-58
2023/01/06 02:32:42;;;;;;;5.65;3.40;;;;;;;11.33;100.00;101544.19;2615096;36;20054;-60
2023/01/06 02:35:30;;;;;;;5.18;3.00;;;;;;;11.33;100.00;101546.88;2614856;36;20034;-59
2023/01/06 02:38:10;;;;;;;6.47;3.55;;;;;;;11.36;100.00;101543.09;2614845;36;20956;-60
2023/01/06 02:40:57;;;;;;;6.78;3.67;;;;;;;11.35;100.00;101538.66;2615206;36;20034;-60
2023/01/06 02:43:30;;;;;;;7.30;3.80;;;;;;;11.31;100.00;101535.38;2615250;36;20061;-60
2023/01/06 02:46:11;;;;;;;8.27;4.00;;;;;;;11.43;100.00;101521.91;2615514;36;20058;-60
2023/01/06 02:48:52;;;;;;;5.30;3.65;;;;;;;11.40;100.00;101513.06;2614462;36;20030;-61
2023/01/06 02:51:29;;;;;;;5.47;3.17;;;;;;;11.40;100.00;101506.81;2615372;36;20474;-59
2023/01/06 02:54:09;;;;;;;8.73;3.38;;;;;;;11.45;100.00;101506.44;2614416;36;20042;-61
2023/01/06 02:56:44;;;;;;;7.95;3.72;;;;;;;11.40;100.00;101506.81;2614551;36;20439;-60
2023/01/06 02:59:19;;;;;;;8.98;3.17;;;;;;;11.35;100.00;101509.03;2615820;36;20438;-61
2023/01/06 03:01:53;;;;;;;7.85;3.13;;;;;;;11.44;100.00;101507.41;2614588;36;20034;-60
2023/01/06 03:04:28;;;;;;;10.07;3.15;;;;;;;11.32;100.00;101498.50;2631250;36;20026;-59
2023/01/06 03:07:01;;;;;;;6.28;3.33;;;;;;;11.32;100.00;101501.19;2615677;36;20026;-61
2023/01/06 03:09:35;;;;;;;5.95;3.17;;;;;;;11.34;100.00;101477.69;2616352;31;20035;-59
2023/01/06 03:12:08;;;;;;;4.80;2.90;;;;;;;11.40;100.00;101474.47;2616051;36;20038;-60
2023/01/06 03:14:41;;;;;;;5.32;3.13;;;;;;;11.29;100.00;101471.78;2615786;31;21182;-59
2023/01/06 03:17:12;;;;;;;7.57;3.78;;;;;;;11.22;100.00;101477.69;2615626;36;20413;-60
2023/01/06 03:19:44;;;;;;;6.50;3.95;;;;;;;11.22;100.00;101461.53;2614706;36;20042;-62
2023/01/06 03:22:14;;;;;;;7.68;3.50;;;;;;;11.25;100.00;101454.16;2616052;36;20069;-60
2023/01/06 03:24:44;;;;;;;4.05;2.90;;;;;;;11.27;100.00;101446.81;2615709;36;20050;-60
2023/01/06 03:27:12;;;;;;;8.13;3.05;;;;;;;11.34;100.00;101437.25;2616153;36;20038;-61
2023/01/06 03:29:41;;;;;;;7.13;3.20;;;;;;;11.30;100.00;101425.00;2616207;36;20591;-59
2023/01/06 03:32:18;;;;;;;5.68;2.92;;;;;;;11.30;100.00;101430.41;2616261;31;20416;-60
2023/01/06 03:35:00;;;;;;;6.60;3.05;;;;;;;11.36;100.00;101436.13;2615339;36;20578;-60
2023/01/06 03:37:36;;;;;;;4.32;3.08;;;;;;;11.33;100.00;101439.06;2616150;36;20031;-60
2023/01/06 03:40:13;;;;;;;6.63;3.67;;;;;;;11.27;100.00;101427.97;2611497;36;20034;-60
2023/01/06 03:45:42;;;;;;;9.90;5.60;;;;;;;11.21;100.00;101422.09;2616343;36;20038;-60
2023/01/06 03:48:19;;;;;;;5.95;4.30;;;;;;;11.18;100.00;101416.94;2616078;36;20561;-60
2023/01/06 03:50:54;;;;;;;6.18;4.38;;;;;;;11.29;100.00;101413.38;2615532;36;20034;-60
2023/01/06 03:53:31;;;;;;;10.48;5.00;;;;;;;11.26;100.00;101418.16;2615722;36;20424;-60
2023/01/06 03:56:11;;;;;;;5.93;4.20;;;;;;;11.37;100.00;101410.91;2615907;36;20045;-60
2023/01/06 03:58:40;;;;;;;7.45;3.83;;;;;;;11.32;100.00;101406.88;2616516;36;20431;-61
2023/01/06 04:01:11;;;;;;;7.60;4.53;;;;;;;11.20;100.00;101400.66;2616002;36;20030;-59
2023/01/06 04:03:40;;;;;;;7.05;4.60;;;;;;;11.06;100.00;101388.34;2615719;36;20034;-60
2023/01/06 04:06:11;;;;;;;7.87;3.70;;;;;;;11.10;100.00;101376.34;2615130;36;20035;-61
2023/01/06 04:08:39;;;;;;;4.22;3.25;;;;;;;11.15;100.00;101374.09;2616004;36;20276;-61
2023/01/06 04:11:08;;;;;;;8.23;3.63;;;;;;;11.03;100.00;101364.34;2616134;36;20026;-60
2023/01/06 04:13:33;;;;;;;8.98;3.58;;;;;;;11.18;100.00;101363.06;2616293;31;20643;-61
2023/01/06 04:16:02;;;;;;;5.63;3.63;;;;;;;11.20;100.00;101361.13;2615590;36;20633;-60
2023/01/06 04:18:30;;;;;;;5.80;2.70;;;;;;;11.17;100.00;101355.09;2615508;36;20035;-60
2023/01/06 04:20:58;;;;;;;6.50;3.03;;;;;;;11.14;100.00;101369.69;2615566;36;20037;-61
2023/01/06 04:23:31;;;;;;;5.50;2.83;;;;;;;11.12;100.00;101374.34;2615660;36;20106;-59
2023/01/06 04:26:00;;;;;;;4.40;3.17;;;;;;;11.16;100.00;101364.16;2615724;36;20027;-58
2023/01/06 04:28:28;;;;;;;4.90;2.83;;;;;;;11.28;100.00;101367.69;2615726;36;20039;-61
2023/01/06 04:30:59;;;;;;;6.75;2.90;;;;;;;11.27;100.00;101355.22;2615939;36;20023;-61
2023/01/06 04:33:29;;;;;;;4.07;2.40;;;;;;;11.31;100.00;101351.28;2615602;36;20035;-59
2023/01/06 04:35:57;;;;;;;4.75;2.47;;;;;;;11.29;100.00;101347.84;2615337;36;20035;-59
2023/01/06 04:38:28;;;;;;;4.83;2.37;;;;;;;11.19;100.00;101354.00;2616406;31;20042;-60
2023/01/06 04:40:57;;;;;;;6.20;2.50;;;;;;;11.24;100.00;101350.06;2615557;36;20026;-60
2023/01/06 04:43:25;;;;;;;5.40;2.00;;;;;;;11.27;100.00;101349.81;2615871;36;20034;-60
2023/01/06 04:45:53;;;;;;;5.10;2.33;;;;;;;11.27;100.00;101339.88;2615895;36;20030;-61
2023/01/06 04:48:22;;;;;;;2.75;2.10;;;;;;;11.37;100.00;101340.81;2615269;31;20030;-59
2023/01/06 04:50:50;;;;;;;6.13;2.88;;;;;;;11.20;100.00;101342.25;2615910;31;20030;-59
2023/01/06 04:53:18;;;;;;;3.47;2.05;;;;;;;11.26;100.00;101345.41;2615522;36;20049;-59
2023/01/06 04:55:49;;;;;;;6.45;2.60;;;;;;;11.22;100.00;101345.66;2616123;31;20034;-60
2023/01/06 04:58:18;;;;;;;6.70;2.42;;;;;;;11.09;100.00;101346.81;2615687;36;20031;-61
2023/01/06 05:00:46;;;;;;;5.50;2.63;;;;;;;11.03;100.00;101329.34;2615921;36;20031;-59
2023/01/06 05:03:14;;;;;;;3.72;2.50;;;;;;;11.18;100.00;101341.50;2615032;36;20030;-60
2023/01/06 05:05:43;;;;;;;3.95;3.05;;;;;;;11.31;100.00;101327.88;2614652;36;20034;-59
2023/01/06 05:08:11;;;;;;;5.40;2.72;;;;;;;11.25;100.00;101324.81;2616661;36;20030;-60
2023/01/06 05:10:39;;;;;;;6.28;2.75;;;;;;;11.19;100.00;101318.97;2616230;32;20401;-60
2023/01/06 05:13:10;;;;;;;5.60;2.63;;;;;;;11.33;100.00;101309.72;2615792;36;20038;-63
2023/01/06 05:15:40;;;;;;;5.82;2.65;;;;;;;11.15;100.00;101305.91;2616714;31;20042;-61
2023/01/06 05:18:08;;;;;;;4.43;2.67;;;;;;;11.15;100.00;101298.66;2615436;36;20035;-60
2023/01/06 05:20:37;;;;;;;4.82;2.70;;;;;;;11.14;100.00;101296.94;2616171;31;20133;-60
2023/01/06 05:23:05;;;;;;;7.30;3.13;;;;;;;11.11;100.00;101297.22;2616945;31;20533;-61
2023/01/06 05:25:34;;;;;;;4.05;2.50;;;;;;;11.12;100.00;101301.63;2615581;36;20022;-60
2023/01/06 05:28:02;;;;;;;4.28;3.00;;;;;;;11.14;100.00;101302.34;2615903;36;20057;-59
2023/01/06 05:30:33;;;;;;;7.25;3.10;;;;;;;11.17;100.00;101303.91;2616184;36;20431;-60
2023/01/06 05:33:01;;;;;;;4.20;2.72;;;;;;;11.30;100.00;101301.06;2615591;36;20030;-60
2023/01/06 05:35:30;;;;;;;4.33;2.97;;;;;;;11.19;100.00;101296.59;2615495;36;20039;-61
2023/01/06 05:37:58;;;;;;;9.52;3.70;;;;;;;11.14;100.00;101307.72;2615769;36;20038;-60
2023/01/06 05:40:26;;;;;;;4.70;3.13;;;;;;;11.09;100.00;101309.97;2615622;31;20039;-60
2023/01/06 05:42:56;;;;;;;3.88;2.92;;;;;;;11.00;100.00;101308.03;2615014;36;20808;-59
2023/01/06 05:45:25;;;;;;;3.88;3.20;;;;;;;10.84;100.00;101300.38;2616268;36;20034;-59
2023/01/06 05:47:56;;;;;;;7.63;3.20;;;;;;;11.11;100.00;101313.38;2616269;36;20069;-59
2023/01/06 05:50:25;;;;;;;6.03;3.40;;;;;;;11.08;100.00;101312.78;2615727;36;20029;-59
2023/01/06 05:52:53;;;;;;;7.70;3.78;;;;;;;10.98;100.00;101307.31;2616657;36;20022;-60
2023/01/06 05:55:21;;;;;;;7.47;3.27;;;;;;;11.02;100.00;101309.59;2616613;36;20419;-59
2023/01/06 05:57:56;;;;;;;5.00;3.33;;;;;;;10.98;100.00;101305.47;2617018;36;20311;-59
2023/01/06 06:00:24;;;;;;;4.18;3.70;;;;;;;11.02;100.00;101309.59;2616663;36;20397;-59
2023/01/06 06:02:56;;;;;;;4.53;4.05;;;;;;;11.10;100.00;101308.09;2616167;36;20034;-58
2023/01/06 06:05:25;;;;;;;5.30;3.97;;;;;;;11.09;100.00;101320.75;2615876;36;20599;-60
2023/01/06 06:07:56;;;;;;;4.32;3.72;;;;;;;11.02;100.00;101308.75;2616236;31;20520;-60
2023/01/06 06:10:25;;;;;;;6.90;3.97;;;;;;;11.03;100.00;101310.47;2616522;36;20441;-58
2023/01/06 06:12:53;;;;;;;7.47;3.92;;;;;;;11.17;100.00;101318.28;2615588;36;20030;-60
2023/01/06 06:15:22;;;;;;;4.90;3.58;;;;;;;11.07;100.00;101311.94;2616552;36;20443;-59
2023/01/06 06:17:50;;;;;;;6.57;3.78;;;;;;;11.03;100.00;101315.88;2615908;31;20395;-59
2023/01/06 06:20:21;;;;;;;6.07;3.80;;;;;;;11.07;100.00;101303.84;2615181;31;20042;-59
2023/01/06 06:22:50;;;;;;;5.50;3.55;;;;;;;11.01;100.00;101307.03;2615855;36;20547;-59
2023/01/06 06:25:18;;;;;;;4.57;3.87;;;;;;;10.98;100.00;101316.25;2615440;36;20061;-60
2023/01/06 06:27:46;;;;;;;7.68;4.55;;;;;;;11.04;100.00;101306.78;2614869;36;20600;-59
2023/01/06 06:30:16;;;;;;;6.85;3.83;;;;;;;11.00;100.00;101297.28;2614736;36;20030;-59
2023/01/06 06:32:44;;;;;;;5.63;3.70;;;;;;;11.00;100.00;101313.44;2615460;31;20035;-60
2023/01/06 06:35:13;;;;;;;4.93;4.00;;;;;;;11.04;100.00;101306.78;2614835;31;20038;-60
2023/01/06 06:37:43;;;;;;;4.53;3.75;;;;;;;11.07;100.00;101298.47;2616467;36;20417;-60
2023/01/06 06:40:13;;;;;;;5.45;3.33;;;;;;;11.08;100.00;101304.69;2615340;36;20558;-59
2023/01/06 06:42:42;;;;;;;5.63;3.47;;;;;;;11.12;100.00;101304.31;2615703;36;20029;-59
2023/01/06 06:45:11;;;;;;;8.18;3.67;;;;;;;11.07;100.00;101311.06;2615986;36;20041;-59
2023/01/06 06:47:39;;;;;;;6.35;3.85;;;;;;;10.97;100.00;101321.78;2615959;36;20751;-59
2023/01/06 06:50:08;;;;;;;7.38;5.43;;;;;;;11.01;100.00;101325.91;2615647;36;20046;-59
2023/01/06 06:52:36;;;;;;;6.30;4.20;;;;;;;10.98;100.00;101332.41;2616222;36;20586;-60
2023/01/06 06:55:08;;;;;;;6.18;3.92;;;;;;;11.03;100.00;101321.25;2616482;36;20045;-60
2023/01/06 06:57:37;;;;;;;6.15;4.25;;;;;;;11.06;100.00;101334.47;2617729;36;20436;-59
2023/01/06 07:00:07;;;;;;;10.27;4.38;;;;;;;11.07;100.00;101338.00;2617474;36;20420;-60
2023/01/06 07:02:35;;;;;;;8.48;5.45;;;;;;;11.00;100.00;101340.38;2617055;36;20030;-60
2023/01/06 07:05:03;;;;;;;6.40;4.60;;;;;;;10.99;100.00;101349.41;2616429;36;20162;-59
2023/01/06 07:07:32;;;;;;;5.22;4.18;;;;;;;11.19;100.00;101347.78;2617065;36;20046;-59
2023/01/06 07:10:00;;;;;;;6.50;4.30;;;;;;;11.12;100.00;101351.97;2616734;36;20023;-60
2023/01/06 07:12:31;;;;;;;9.90;4.57;;;;;;;11.03;100.00;101350.88;2617314;36;20035;-59
2023/01/06 07:14:59;;;;;;;7.00;4.72;;;;;;;11.02;100.00;101365.31;2616850;36;20570;-60
2023/01/06 07:17:28;;;;;;;5.95;4.05;;;;;;;10.99;100.00;101349.41;2617007;36;20031;-59
2023/01/06 07:19:57;;;;;;;7.63;4.45;;;;;;;10.97;100.00;101359.47;2616081;31;20023;-60
2023/01/06 07:22:25;;;;;;;7.93;4.55;;;;;;;10.97;100.00;101359.47;2616949;36;20548;-59
2023/01/06 07:24:53;;;;;;;7.83;4.53;;;;;;;11.09;100.00;101377.31;2616941;36;20142;-60
2023/01/06 07:27:22;;;;;;;7.40;3.83;;;;;;;11.13;100.00;101370.69;2616867;36;20026;-60
2023/01/06 07:29:53;;;;;;;5.55;4.10;;;;;;;11.03;100.00;101375.13;2618014;31;20041;-60
2023/01/06 07:32:21;;;;;;;6.50;4.32;;;;;;;11.07;100.00;101386.50;2616752;36;20030;-61
2023/01/06 07:34:50;;;;;;;5.90;4.03;;;;;;;11.07;100.00;101381.09;2616141;36;20048;-60
2023/01/06 07:37:18;;;;;;;5.28;3.75;;;;;;;11.13;100.00;101403.03;2616658;36;20018;-61
2023/01/06 07:39:46;;;;;;;7.37;3.37;;;;;;;11.12;100.00;101401.31;2615902;36;20038;-59
2023/01/06 07:42:15;;;;;;;4.97;3.03;;;;;;;11.16;100.00;101427.00;2615728;36;20046;-60
2023/01/06 07:44:43;;;;;;;3.70;2.88;;;;;;;11.12;100.00;101427.41;2615545;36;20482;-61
2023/01/06 07:47:14;;;;;;;5.10;3.00;;;;;;;11.07;100.00;101422.38;2615920;36;20065;-61
2023/01/06 07:49:43;;;;;;;4.20;3.00;;;;;;;11.09;100.00;101431.19;2616600;36;20031;-60
2023/01/06 07:52:11;;;;;;;3.95;2.65;;;;;;;11.03;100.00;101423.63;2616960;36;20034;-60
2023/01/06 07:54:39;;;;;;;6.43;3.45;;;;;;;10.92;100.00;101424.47;2617002;36;20073;-59
2023/01/06 07:57:08;;;;;;;7.43;2.97;;;;;;;10.93;100.00;101430.72;2616375;36;20027;-59
2023/01/06 07:59:36;;;;;;;3.22;2.33;;;;;;;10.79;100.00;101435.41;2617149;36;20045;-60
2023/01/06 08:02:05;;;;;;;5.75;1.95;;;;;;;10.71;100.00;101455.84;2616023;36;20027;-60
2023/01/06 08:04:36;;;;;;;7.15;2.38;;;;;;;10.63;100.00;101453.72;2616346;36;20026;-60
2023/01/06 08:07:05;;;;;;;5.47;2.50;;;;;;;10.62;100.00;101454.72;2616990;31;20037;-61
2023/01/06 08:09:33;;;;;;;8.40;1.90;;;;;;;10.59;100.00;101471.13;2617285;36;20427;-60
2023/01/06 08:12:01;;;;;;;9.40;1.97;;;;;;;10.52;100.00;101458.13;2617134;36;20037;-61
2023/01/06 08:14:30;;;;;;;4.78;1.63;;;;;;;10.54;100.00;101471.50;2616947;36;20275;-59
2023/01/06 08:16:58;;;;;;;9.93;1.67;;;;;;;10.44;100.00;101486.66;2615622;36;20041;-60
2023/01/06 08:19:26;;;;;;;7.90;2.90;;;;;;;10.61;100.00;101493.38;2615501;36;20037;-61
2023/01/06 08:21:57;;;;;;;5.90;3.53;;;;;;;10.49;100.00;101501.44;2616231;36;20065;-61
2023/01/06 08:24:26;;;;;;;6.40;1.70;;;;;;;10.46;100.00;101490.06;2615313;36;20037;-60
2023/01/06 08:26:54;;;;;;;7.47;1.53;;;;;;;10.42;100.00;101500.19;2616311;31;20038;-60
2023/01/06 08:29:23;;;;;;;7.00;2.15;;;;;;;10.40;100.00;101499.47;2615525;36;20022;-60
2023/01/06 08:31:51;;;;;;;6.88;1.70;;;;;;;10.44;100.00;101484.81;2612290;36;20034;-59
2023/01/06 08:34:19;;;;;;;24.63;2.83;;;;;;;10.49;100.00;101495.19;2614437;36;20043;-60
2023/01/06 08:36:48;;;;;;;4.47;1.80;;;;;;;10.40;100.00;101507.53;2616807;36;20060;-60
2023/01/06 08:39:19;;;;;;;4.38;2.00;;;;;;;10.43;100.00;101512.69;2616367;36;20045;-61
2023/01/06 08:41:50;;;;;;;8.52;1.90;;;;;;;10.39;100.00;101515.75;2615825;36;20423;-60
2023/01/06 08:44:18;;;;;;;12.05;2.30;;;;;;;10.36;100.00;101516.81;2616368;36;20042;-60
2023/01/06 08:46:47;;;;;;;14.15;1.85;;;;;;;10.37;100.00;101517.69;2616171;31;20439;-60
2023/01/06 08:49:15;;;;;;;10.53;3.23;;;;;;;10.43;100.00;101515.38;2616507;36;20032;-60
2023/01/06 08:51:44;;;;;;;8.23;1.63;;;;;;;10.41;100.00;101524.53;2615790;36;20029;-60
2023/01/06 08:54:13;;;;;;;7.95;1.70;;;;;;;10.28;100.00;101530.00;2615020;36;20034;-59
2023/01/06 08:56:44;;;;;;;9.75;2.60;;;;;;;10.28;100.00;101532.69;2615104;36;20108;-61
2023/01/06 08:59:17;;;;;;;9.63;2.60;;;;;;;10.21;100.00;101539.50;2615361;36;20125;-60
2023/01/06 09:01:46;;;;;;;12.55;2.35;;;;;;;10.21;100.00;101545.72;2614991;36;20046;-60
2023/01/06 09:04:14;;;;;;;9.68;1.60;;;;;;;10.23;100.00;101553.69;2614949;36;20030;-61
2023/01/06 09:06:46;;;;;;;10.52;1.70;;;;;;;10.26;100.00;101564.22;2616193;31;20034;-59
2023/01/06 09:09:14;;;;;;;6.10;1.60;;;;;;;10.09;100.00;101560.97;2615435;36;20407;-60
2023/01/06 09:11:47;;;;;;;8.33;1.60;;;;;;;10.08;100.00;101569.16;2616433;36;20400;-61
2023/01/06 09:14:16;;;;;;;11.00;1.95;;;;;;;10.11;100.00;101567.09;2592158;36;20299;-59
2023/01/06 09:16:46;;;;;;;6.50;1.45;;;;;;;10.08;100.00;101559.25;2586094;36;20039;-59
2023/01/06 09:19:15;;;;;;;7.75;1.80;;;;;;;10.09;100.00;101563.66;2586660;36;20073;-61
2023/01/06 09:21:45;;;;;;;8.82;1.40;;;;;;;10.01;100.00;101574.13;2586479;36;20045;-59
2023/01/06 09:24:15;;;;;;;9.15;1.45;;;;;;;10.06;100.00;101574.66;2587397;36;20534;-60
2023/01/06 09:26:46;;;;;;;6.63;2.00;;;;;;;10.10;100.00;101575.28;2587049;31;20034;-60
2023/01/06 09:29:14;;;;;;;14.80;1.52;;;;;;;10.12;100.00;101590.31;2586853;36;20034;-60
2023/01/06 09:31:43;;;;;;;10.43;1.40;;;;;;;10.14;100.00;101583.03;2586535;36;20038;-59
2023/01/06 09:34:11;;;;;;;10.38;1.50;;;;;;;10.11;100.00;101579.69;2587195;36;20828;-59
2023/01/06 09:36:39;;;;;;;8.87;1.60;;;;;;;10.12;100.00;101590.31;2587270;36;20026;-59
2023/01/06 09:39:08;;;;;;;10.18;1.65;;;;;;;10.20;100.00;101594.28;2587313;36;20039;-61
2023/01/06 09:41:57;;;;;;;7.80;1.27;;;;;;;10.12;100.00;101597.56;2586875;36;20041;-60
2023/01/06 09:44:31;;;;;;;7.13;0.90;;;;;;;10.26;100.00;101599.19;2586983;36;20034;-60
2023/01/06 09:47:06;;;;;;;15.60;1.92;;;;;;;10.24;100.00;101604.69;2588142;36;20631;-59
2023/01/06 09:49:43;;;;;;;7.72;1.20;;;;;;;10.33;100.00;101609.44;2586366;36;21338;-60
2023/01/06 09:52:18;;;;;;;9.73;1.23;;;;;;;10.41;100.00;101600.75;2586266;36;20022;-60
2023/01/06 09:54:55;;;;;;;6.18;1.42;;;;;;;10.48;100.00;101602.00;2586821;31;20034;-59
2023/01/06 09:57:32;;;;;;;11.07;2.17;;;;;;;10.48;100.00;101606.53;2589113;31;20035;-59
2023/01/06 10:00:04;;;;;;;10.27;1.33;;;;;;;10.54;100.00;101615.97;2587491;36;20035;-61
2023/01/06 10:02:38;;;;;;;8.27;2.03;;;;;;;10.55;100.00;101618.53;2586870;36;20342;-61
2023/01/06 10:05:20;;;;;;;6.72;1.00;;;;;;;10.60;100.00;101629.81;2587565;36;20030;-61
2023/01/06 10:07:56;;;;;;;4.43;1.50;;;;;;;10.65;100.00;101629.47;2587883;36;20038;-59
2023/01/06 10:10:34;;;;;;;7.03;1.13;;;;;;;10.57;100.00;101622.00;2587870;36;20042;-60
2023/01/06 10:13:31;;;;;;;8.05;1.10;;;;;;;10.54;100.00;101615.97;2588350;36;20432;-61
2023/01/06 10:16:11;;;;;;;10.13;1.17;;;;;;;10.57;100.00;101618.41;2587227;36;20038;-61
2023/01/06 10:18:50;;;;;;;4.82;1.30;;;;;;;10.51;100.00;101628.69;2587754;36;20253;-60
2023/01/06 10:21:29;;;;;;;4.88;0.90;;;;;;;10.53;100.00;101639.34;2587364;36;20039;-60
2023/01/06 10:24:26;;;;;;;8.20;1.42;;;;;;;10.63;100.00;101631.41;2587433;36;21141;-61
2023/01/06 10:27:03;;;;;;;7.32;1.30;;;;;;;10.74;100.00;101628.75;2588768;31;20042;-61
2023/01/06 10:29:38;;;;;;;6.75;1.25;;;;;;;10.72;100.00;101641.50;2585330;36;20038;-61
2023/01/06 10:32:10;;;;;;;8.75;1.30;;;;;;;10.73;100.00;101648.56;2585308;36;20034;-60
2023/01/06 10:34:39;;;;;;;5.68;1.65;;;;;;;10.72;100.00;101656.75;2587050;36;20041;-59
2023/01/06 10:37:16;;;;;;;4.13;1.17;;;;;;;10.90;100.00;101660.75;2587985;36;20061;-59
2023/01/06 10:39:47;;;;;;;6.75;1.20;;;;;;;10.82;100.00;101655.97;2589857;31;20039;-60
2023/01/06 10:45:12;;;;;;;7.18;1.50;;;;;;;10.86;100.00;101652.06;2587967;31;20057;-61
2023/01/06 10:47:42;;;;;;;4.40;0.98;;;;;;;10.81;100.00;101651.53;2587950;36;20542;-60
2023/01/06 10:50:14;;;;;;;4.55;1.48;;;;;;;10.77;100.00;101650.06;2587193;36;20034;-61
2023/01/06 10:52:43;;;;;;;9.88;1.40;;;;;;;10.79;100.00;101656.19;2588502;36;20567;-60
2023/01/06 10:55:20;;;;;;;5.75;1.00;;;;;;;10.65;100.00;101659.09;2587320;36;20406;-61
2023/01/06 10:57:50;;;;;;;5.68;1.02;;;;;;;10.83;100.00;101657.66;2587811;36;20667;-60
2023/01/06 11:00:24;;;;;;;8.88;1.50;;;;;;;10.63;100.00;101661.00;2586258;31;20034;-61
2023/01/06 11:02:54;;;;;;;4.80;1.00;;;;;;;10.66;100.00;101652.72;2585674;36;21308;-60
2023/01/06 11:05:25;;;;;;;4.75;1.35;;;;;;;10.69;100.00;101650.66;2585508;36;21406;-59
2023/01/06 11:07:57;;;;;;;2.35;0.90;;;;;;;10.68;100.00;101645.38;2586547;36;20022;-59
2023/01/06 11:10:33;;;;;;;4.35;1.00;;;;;;;10.58;100.00;101641.69;2587035;36;20427;-58
2023/01/06 11:13:04;;;;;;;6.15;1.30;;;;;;;10.71;100.00;101645.16;2585606;31;20058;-61
2023/01/06 11:15:42;;;;;;;3.60;1.20;;;;;;;10.67;100.00;101627.50;2587231;36;20455;-60
2023/01/06 11:18:22;;;;;;;3.60;0.80;;;;;;;10.69;100.00;101626.41;2586018;36;20042;-58
2023/01/06 11:21:07;;;;;;;7.03;1.00;;;;;;;10.62;100.00;101629.72;2588555;36;20165;-59
2023/01/06 11:23:36;;;;;;;5.45;1.00;;;;;;;10.72;100.00;101624.44;2589242;36;20443;-60
2023/01/06 11:26:09;;;;;;;5.50;1.25;;;;;;;10.61;100.00;101622.59;2588038;31;20510;-59
2023/01/06 11:28:37;;;;;;;5.97;1.27;;;;;;;10.76;100.00;101632.19;2588585;31;20034;-60
2023/01/06 11:31:11;;;;;;;6.05;1.02;;;;;;;10.73;100.00;101629.72;2588028;36;20038;-59
2023/01/06 11:33:47;;;;;;;5.00;1.40;;;;;;;10.77;100.00;101627.66;2586338;36;20058;-59
2023/01/06 11:36:16;;;;;;;6.38;1.10;;;;;;;10.71;100.00;101645.16;2586987;31;20035;-60
2023/01/06 11:38:47;;;;;;;6.78;1.05;;;;;;;10.69;100.00;101645.25;2585975;36;20531;-59
2023/01/06 11:41:26;;;;;;;6.38;1.13;;;;;;;10.63;100.00;101634.97;2585193;36;20654;-60
2023/01/06 11:43:59;;;;;;;6.88;1.13;;;;;;;10.74;100.00;101641.38;2587218;36;20543;-61
2023/01/06 11:46:30;;;;;;;3.67;0.95;;;;;;;10.85;100.00;101636.88;2586056;36;20339;-62
2023/01/06 11:49:03;;;;;;;6.30;1.25;;;;;;;10.81;100.00;101629.16;2586294;36;21352;-58